Time;durP1;ratioP1;P1;durP2;ratioP2;P2;SDS_P1;SDS_P2;PMS_P1;PMS_P2;Temp;Humidity;BMP_temperature;BMP_pressure;BME280_temperature;BME280_humidity;BME280_pressure;Samples;Min_cycle;Max_cycle;Signal;HPM_P1;HPM_P2
2023/01/13 00:00:08;;;;;;;;;;;;;;;10.98;74.32;99808.22;7361216;19;20000;-62
2023/01/13 00:02:34;;;;;;;;;;;;;;;10.96;74.37;99812.88;7356577;19;19919;-58
2023/01/13 00:05:01;;;;;;;;;;;;;;;10.91;72.83;99812.59;7357709;19;19985;-62
2023/01/13 00:07:28;;;;;;;;;;;;;;;10.90;73.63;99803.88;7361187;19;19948;-61
2023/01/13 00:09:55;;;;;;;;;;;;;;;10.91;74.67;99805.50;7359865;19;20343;-60
2023/01/13 00:12:22;;;;;;;;;;;;;;;10.91;74.70;99804.69;7360181;19;19927;-62
2023/01/13 00:14:49;;;;;;;;;;;;;;;10.90;73.51;99801.25;7360486;19;19933;-63
2023/01/13 00:17:16;;;;;;;;;;;;;;;10.89;74.48;99807.50;7360600;19;19935;-62
2023/01/13 00:19:43;;;;;;;;;;;;;;;10.88;74.24;99803.22;7358843;19;19919;-61
2023/01/13 00:22:10;;;;;;;;;;;;;;;10.88;73.79;99813.75;7357082;19;19939;-61
2023/01/13 00:24:37;;;;;;;;;;;;;;;10.87;74.17;99803.44;7356003;19;19979;-61
2023/01/13 00:27:04;;;;;;;;;;;;;;;10.87;74.46;99800.78;7360147;19;19926;-63
2023/01/13 00:29:31;;;;;;;;;;;;;;;10.86;74.11;99797.34;7356067;19;19927;-62
2023/01/13 00:31:58;;;;;;;;;;;;;;;10.86;73.50;99797.34;7361520;19;19922;-61
2023/01/13 00:34:25;;;;;;;;;;;;;;;10.89;74.41;99804.06;7357973;19;20284;-60
2023/01/13 00:36:52;;;;;;;;;;;;;;;10.87;73.68;99796.31;7359187;19;19919;-61
2023/01/13 00:39:19;;;;;;;;;;;;;;;10.88;72.70;99805.84;7358967;19;20605;-61
2023/01/13 00:44:16;;;;;;;;;;;;;;;10.85;73.22;99798.34;7357692;19;20680;-60
2023/01/13 00:46:43;;;;;;;;;;;;;;;10.86;74.09;99799.97;7358402;19;19930;-62
2023/01/13 00:49:10;;;;;;;;;;;;;;;10.87;73.99;99800.78;7356746;19;19927;-62
2023/01/13 00:51:37;;;;;;;;;;;;;;;10.85;72.93;99787.81;7361528;19;19923;-61
2023/01/13 00:54:04;;;;;;;;;;;;;;;10.83;73.27;99796.88;7354914;19;20793;-61
2023/01/13 00:56:31;;;;;;;;;;;;;;;10.82;73.02;99787.38;7359968;19;19947;-61
2023/01/13 00:59:08;;;;;;;;;;;;;;;10.84;73.72;99803.78;7359243;19;19934;-61
2023/01/13 01:01:35;;;;;;;;;;;;;;;10.84;72.51;99804.59;7360466;19;19922;-62
2023/01/13 01:04:03;;;;;;;;;;;;;;;10.84;73.32;99798.50;7359476;19;20313;-67
2023/01/13 01:06:29;;;;;;;;;;;;;;;10.82;72.42;99795.25;7356545;19;19923;-60
2023/01/13 01:08:57;;;;;;;;;;;;;;;10.82;72.74;99795.25;7356029;19;19926;-61
2023/01/13 01:11:25;;;;;;;;;;;;;;;10.80;71.59;99802.50;7359959;19;20481;-61
2023/01/13 01:13:53;;;;;;;;;;;;;;;10.80;72.03;99805.13;7358746;19;19998;-61
2023/01/13 01:16:21;;;;;;;;;;;;;;;10.76;72.16;99801.22;7362576;19;20081;-62
2023/01/13 01:18:49;;;;;;;;;;;;;;;10.73;72.16;99799.75;7365778;19;20141;-60
2023/01/13 01:21:17;;;;;;;;;;;;;;;10.71;72.73;99793.88;7363412;19;20728;-62
2023/01/13 01:23:44;;;;;;;;;;;;;;;10.69;74.05;99798.50;7364318;19;20011;-61
2023/01/13 01:26:13;;;;;;;;;;;;;;;10.66;72.59;99797.06;7363195;19;19911;-62
2023/01/13 01:28:40;;;;;;;;;;;;;;;10.62;71.13;99810.72;7364758;19;19927;-62
2023/01/13 01:31:09;;;;;;;;;;;;;;;10.59;72.79;99801.38;7364064;19;20083;-62
2023/01/13 01:33:36;;;;;;;;;;;;;;;10.60;73.89;99813.53;7365575;19;19922;-62
2023/01/13 01:36:03;;;;;;;;;;;;;;;10.59;72.54;99797.94;7366216;19;19941;-63
2023/01/13 01:38:30;;;;;;;;;;;;;;;10.61;71.94;99806.47;7362747;19;20360;-62
2023/01/13 01:40:57;;;;;;;;;;;;;;;10.59;72.44;99803.19;7363395;19;19922;-61
2023/01/13 01:45:57;;;;;;;;;;;;;;;10.59;72.78;99819.78;7364829;19;19919;-61
2023/01/13 01:48:26;;;;;;;;;;;;;;;10.57;72.98;99813.88;7363517;19;19919;-62
2023/01/13 01:50:53;;;;;;;;;;;;;;;10.57;72.22;99826.22;7364247;19;20747;-62
2023/01/13 01:53:22;;;;;;;;;;;;;;;10.58;72.61;99828.66;7365760;19;20590;-60
2023/01/13 01:55:49;;;;;;;;;;;;;;;10.57;72.90;99828.84;7362262;19;19919;-61
2023/01/13 01:58:20;;;;;;;;;;;;;;;10.53;72.47;99833.66;7366752;19;20468;-61
2023/01/13 02:00:47;;;;;;;;;;;;;;;10.54;72.55;99834.47;7364844;19;19925;-61
2023/01/13 02:03:15;;;;;;;;;;;;;;;10.53;72.54;99848.59;7367563;19;19946;-62
2023/01/13 02:05:42;;;;;;;;;;;;;;;10.56;73.85;99843.00;7364320;19;19922;-62
2023/01/13 02:08:10;;;;;;;;;;;;;;;10.52;72.26;99847.78;7361016;19;20025;-61
2023/01/13 02:10:38;;;;;;;;;;;;;;;10.52;72.71;99844.34;7362319;19;19926;-61
2023/01/13 02:13:07;;;;;;;;;;;;;;;10.52;73.44;99857.47;7365429;19;19918;-60
2023/01/13 02:15:41;;;;;;;;;;;;;;;10.53;73.07;99849.44;7364752;19;19922;-58
2023/01/13 02:18:08;;;;;;;;;;;;;;;10.52;72.25;99842.53;7364094;19;19929;-58
2023/01/13 02:20:36;;;;;;;;;;;;;;;10.49;71.92;99840.25;7366239;19;19919;-60
2023/01/13 02:23:03;;;;;;;;;;;;;;;10.46;72.58;99838.00;7363314;19;19926;-59
2023/01/13 02:25:33;;;;;;;;;;;;;;;10.45;72.73;99841.63;7362727;19;21812;-58
2023/01/13 02:28:01;;;;;;;;;;;;;;;10.45;72.33;99846.06;7364566;19;20005;-58
2023/01/13 02:33:01;;;;;;;;;;;;;;;10.38;72.84;99819.63;7363484;19;20554;-59
2023/01/13 02:35:31;;;;;;;;;;;;;;;10.38;71.91;99851.19;7363677;19;19919;-56
2023/01/13 02:37:59;;;;;;;;;;;;;;;10.40;73.82;99835.25;7366140;19;21437;-59
2023/01/13 02:40:32;;;;;;;;;;;;;;;10.39;73.09;99830.97;7362353;19;20505;-59
2023/01/13 02:45:39;;;;;;;;;;;;;;;10.40;72.87;99836.06;7361017;19;19922;-56
2023/01/13 02:48:07;;;;;;;;;;;;;;;10.44;72.87;99847.84;7363719;19;20306;-59
2023/01/13 02:50:38;;;;;;;;;;;;;;;10.47;72.90;99836.16;7361767;19;21172;-57
2023/01/13 02:53:09;;;;;;;;;;;;;;;10.47;73.40;99830.91;7363861;19;20531;-58
2023/01/13 02:55:38;;;;;;;;;;;;;;;10.48;71.73;99824.66;7363007;19;20285;-59
2023/01/13 02:58:07;;;;;;;;;;;;;;;10.42;70.78;99831.44;7362126;19;19926;-59
2023/01/13 03:00:35;;;;;;;;;;;;;;;10.41;71.66;99818.47;7362005;19;19926;-57
2023/01/13 03:03:02;;;;;;;;;;;;;;;10.41;72.63;99816.66;7361053;19;19923;-57
2023/01/13 03:05:31;;;;;;;;;;;;;;;10.43;71.15;99811.22;7362132;19;19930;-60
2023/01/13 03:08:01;;;;;;;;;;;;;;;10.40;71.42;99812.41;7361179;19;19926;-60
2023/01/13 03:10:31;;;;;;;;;;;;;;;10.40;71.40;99824.72;7356381;19;19942;-59
2023/01/13 03:13:02;;;;;;;;;;;;;;;10.39;71.31;99818.66;7363125;19;19934;-58
2023/01/13 03:15:35;;;;;;;;;;;;;;;10.38;71.66;99827.53;7364043;19;20312;-54
2023/01/13 03:18:06;;;;;;;;;;;;;;;10.39;72.41;99831.78;7363211;19;20480;-58
2023/01/13 03:20:33;;;;;;;;;;;;;;;10.39;71.61;99826.53;7360802;19;19919;-58
2023/01/13 03:23:04;;;;;;;;;;;;;;;10.40;71.97;99837.88;7361900;19;19926;-60
2023/01/13 03:25:34;;;;;;;;;;;;;;;10.38;71.73;99845.94;7356415;19;19922;-59
2023/01/13 03:28:04;;;;;;;;;;;;;;;10.42;73.65;99841.13;7359213;19;20015;-58
2023/01/13 03:30:34;;;;;;;;;;;;;;;10.42;72.44;99844.56;7361213;19;20244;-60
2023/01/13 03:33:04;;;;;;;;;;;;;;;10.42;72.30;99841.13;7362539;19;19919;-60
2023/01/13 03:35:35;;;;;;;;;;;;;;;10.39;72.05;99837.06;7360525;19;19937;-53
2023/01/13 03:38:06;;;;;;;;;;;;;;;10.38;72.36;99831.97;7360135;19;20626;-62
2023/01/13 03:40:37;;;;;;;;;;;;;;;10.35;72.30;99830.50;7359508;19;20091;-60
2023/01/13 03:45:39;;;;;;;;;;;;;;;10.31;72.15;99829.22;7360329;19;20440;-59
2023/01/13 03:48:08;;;;;;;;;;;;;;;10.34;73.57;99838.56;7360133;19;19937;-60
2023/01/13 03:50:39;;;;;;;;;;;;;;;10.36;73.31;99836.59;7360088;19;20350;-58
2023/01/13 03:53:07;;;;;;;;;;;;;;;10.36;72.97;99828.72;7360963;19;20187;-59
2023/01/13 03:55:35;;;;;;;;;;;;;;;10.34;72.47;99847.28;7358780;19;19933;-59
2023/01/13 03:58:03;;;;;;;;;;;;;;;10.36;72.21;99847.13;7360354;19;19937;-57
2023/01/13 04:00:34;;;;;;;;;;;;;;;10.39;73.81;99839.69;7362316;19;19923;-61
2023/01/13 04:03:04;;;;;;;;;;;;;;;10.41;72.67;99852.66;7361693;19;19922;-58
2023/01/13 04:05:32;;;;;;;;;;;;;;;10.42;72.77;99855.09;7360669;19;20973;-59
2023/01/13 04:08:02;;;;;;;;;;;;;;;10.42;73.32;99865.63;7360084;19;19978;-60
2023/01/13 04:10:34;;;;;;;;;;;;;;;10.43;73.09;99883.03;7359798;19;19918;-59
2023/01/13 04:13:04;;;;;;;;;;;;;;;10.43;72.47;99871.69;7360898;19;19926;-59
2023/01/13 04:15:35;;;;;;;;;;;;;;;10.45;73.84;99875.81;7361861;19;19941;-61
2023/01/13 04:18:09;;;;;;;;;;;;;;;10.47;72.79;99884.31;7360876;19;20258;-61
2023/01/13 04:20:36;;;;;;;;;;;;;;;10.48;72.42;99871.97;7361070;19;20489;-58
2023/01/13 04:23:03;;;;;;;;;;;;;;;10.50;73.19;99872.63;7360097;19;20160;-60
2023/01/13 04:25:30;;;;;;;;;;;;;;;10.48;73.69;99869.34;7358513;19;20494;-61
2023/01/13 04:27:57;;;;;;;;;;;;;;;10.42;72.68;99865.63;7357797;19;19926;-59
2023/01/13 04:30:24;;;;;;;;;;;;;;;10.38;73.01;99866.16;7361297;19;19922;-58
2023/01/13 04:32:51;;;;;;;;;;;;;;;10.34;73.30;99865.69;7357813;19;19925;-58
2023/01/13 04:35:18;;;;;;;;;;;;;;;10.35;73.67;99869.13;7359401;19;19915;-59
2023/01/13 04:37:45;;;;;;;;;;;;;;;10.34;74.37;99870.13;7358674;19;20420;-56
2023/01/13 04:40:12;;;;;;;;;;;;;;;10.31;73.21;99873.91;7359539;19;19923;-59
2023/01/13 04:42:39;;;;;;;;;;;;;;;10.32;74.13;99872.91;7358635;19;19915;-60
2023/01/13 04:45:08;;;;;;;;;;;;;;;10.32;74.36;99872.91;7357043;19;20358;-60
2023/01/13 04:47:34;;;;;;;;;;;;;;;10.31;74.38;99876.53;7359379;19;20675;-59
2023/01/13 04:50:02;;;;;;;;;;;;;;;10.31;73.71;99873.13;7362812;19;19966;-58
2023/01/13 04:52:29;;;;;;;;;;;;;;;10.29;74.06;99870.66;7367844;19;19922;-57
2023/01/13 04:54:56;;;;;;;;;;;;;;;10.23;72.97;99860.81;7367178;19;20447;-62
2023/01/13 04:57:23;;;;;;;;;;;;;;;10.20;74.05;99872.53;7366665;19;19929;-61
2023/01/13 04:59:50;;;;;;;;;;;;;;;10.22;74.55;99869.69;7366511;19;19930;-59
2023/01/13 05:02:18;;;;;;;;;;;;;;;10.17;74.54;99869.41;7367670;19;20037;-61
2023/01/13 05:04:46;;;;;;;;;;;;;;;10.17;74.15;99874.66;7367591;19;19994;-59
2023/01/13 05:07:14;;;;;;;;;;;;;;;10.14;73.60;99875.81;7365329;19;20277;-59
2023/01/13 05:09:41;;;;;;;;;;;;;;;10.15;74.63;99885.34;7362201;19;19952;-60
2023/01/13 05:17:11;;;;;;;;;;;;;;;10.17;73.83;99875.47;7367874;19;20569;-62
2023/01/13 05:19:39;;;;;;;;;;;;;;;10.19;74.34;99878.75;7365731;19;19926;-57
2023/01/13 05:27:06;;;;;;;;;;;;;;;10.22;74.08;99894.19;7365791;19;20179;-59
2023/01/13 05:29:34;;;;;;;;;;;;;;;10.21;74.53;99900.41;7363804;19;19919;-59
2023/01/13 05:32:01;;;;;;;;;;;;;;;10.20;74.71;99890.09;7363790;19;19947;-54
2023/01/13 05:34:28;;;;;;;;;;;;;;;10.17;74.45;99900.94;7364602;19;20439;-61
2023/01/13 05:36:55;;;;;;;;;;;;;;;10.20;74.94;99893.56;7367804;19;19918;-57
2023/01/13 05:39:22;;;;;;;;;;;;;;;10.21;75.25;99891.72;7362926;19;20246;-56
2023/01/13 05:44:19;;;;;;;;;;;;;;;10.19;74.44;99901.59;7365622;19;19926;-60
2023/01/13 05:46:45;;;;;;;;;;;;;;;10.17;73.21;99888.63;7365984;19;19925;-60
2023/01/13 05:49:12;;;;;;;;;;;;;;;10.15;74.01;99895.84;7363196;19;19941;-60
2023/01/13 05:51:39;;;;;;;;;;;;;;;10.17;75.06;99898.31;7364970;19;20794;-58
2023/01/13 05:54:06;;;;;;;;;;;;;;;10.20;74.78;99900.63;7360576;19;20011;-59
2023/01/13 05:56:33;;;;;;;;;;;;;;;10.21;74.34;99908.31;7363152;19;19922;-59
2023/01/13 05:59:00;;;;;;;;;;;;;;;10.25;74.80;99911.44;7363039;19;19949;-58
2023/01/13 06:01:27;;;;;;;;;;;;;;;10.27;74.83;99906.78;7360645;19;20340;-56
2023/01/13 06:03:54;;;;;;;;;;;;;;;10.27;74.37;99922.56;7367010;19;20295;-57
2023/01/13 06:06:21;;;;;;;;;;;;;;;10.29;74.02;99912.72;7364047;19;19968;-59
2023/01/13 06:08:48;;;;;;;;;;;;;;;10.28;75.00;99913.69;7363641;19;19929;-59
2023/01/13 06:11:15;;;;;;;;;;;;;;;10.27;74.86;99918.13;7363264;19;20646;-60
2023/01/13 06:13:42;;;;;;;;;;;;;;;10.30;75.65;99914.34;7363638;19;20027;-58
2023/01/13 06:16:09;;;;;;;;;;;;;;;10.27;75.15;99920.75;7364006;19;19925;-59
2023/01/13 06:18:36;;;;;;;;;;;;;;;10.24;74.97;99918.50;7365812;19;20308;-56
2023/01/13 06:21:03;;;;;;;;;;;;;;;10.25;74.90;99919.31;7365124;19;19926;-61
2023/01/13 06:23:33;;;;;;;;;;;;;;;10.19;74.88;99926.09;7364465;19;19990;-64
2023/01/13 06:26:04;;;;;;;;;;;;;;;10.15;75.38;99927.38;7362510;19;19990;-58
2023/01/13 06:28:32;;;;;;;;;;;;;;;10.15;76.20;99935.28;7361293;19;19919;-61
2023/01/13 06:31:00;;;;;;;;;;;;;;;10.14;75.92;99944.16;7364450;19;19958;-60
2023/01/13 06:33:29;;;;;;;;;;;;;;;10.20;77.57;99955.81;7366266;19;19919;-57
2023/01/13 06:35:59;;;;;;;;;;;;;;;10.24;77.36;99943.97;7361570;19;20568;-59
2023/01/13 06:38:27;;;;;;;;;;;;;;;10.25;76.14;99938.53;7361260;19;19922;-57
2023/01/13 06:40:54;;;;;;;;;;;;;;;10.28;75.51;99950.50;7361360;19;19929;-56
2023/01/13 06:43:21;;;;;;;;;;;;;;;10.30;75.76;99951.16;7365494;19;19923;-59
2023/01/13 06:45:51;;;;;;;;;;;;;;;10.32;75.97;99957.06;7359898;19;20650;-57
2023/01/13 06:48:19;;;;;;;;;;;;;;;10.31;75.53;99970.38;7364359;19;19923;-58
2023/01/13 06:50:46;;;;;;;;;;;;;;;10.34;76.08;99973.50;7361963;19;19919;-60
2023/01/13 06:53:13;;;;;;;;;;;;;;;10.39;75.93;99975.59;7363179;19;19939;-55
2023/01/13 06:55:40;;;;;;;;;;;;;;;10.40;75.89;99985.94;7362107;19;20362;-58
2023/01/13 06:58:07;;;;;;;;;;;;;;;10.42;75.87;99991.84;7360285;19;19919;-59
2023/01/13 07:00:35;;;;;;;;;;;;;;;10.47;77.49;100000.03;7364459;19;19933;-57
2023/01/13 07:03:06;;;;;;;;;;;;;;;10.44;75.01;100021.41;7363103;19;19926;-57
2023/01/13 07:05:32;;;;;;;;;;;;;;;10.47;75.15;100026.31;7362928;19;19922;-56
2023/01/13 07:07:59;;;;;;;;;;;;;;;10.49;75.71;100031.44;7362018;19;20269;-59
2023/01/13 07:10:26;;;;;;;;;;;;;;;10.48;75.06;100037.66;7358435;19;19921;-58
2023/01/13 07:15:24;;;;;;;;;;;;;;;10.54;75.93;100039.63;7363593;19;19926;-59
2023/01/13 07:17:51;;;;;;;;;;;;;;;10.52;75.67;100029.25;7360096;19;19930;-55
2023/01/13 07:20:18;;;;;;;;;;;;;;;10.53;75.66;100035.34;7362887;19;19919;-62
2023/01/13 07:22:45;;;;;;;;;;;;;;;10.52;76.32;100036.31;7360104;19;19933;-58
2023/01/13 07:25:12;;;;;;;;;;;;;;;10.51;75.36;100039.97;7358905;19;19926;-60
2023/01/13 07:27:39;;;;;;;;;;;;;;;10.48;75.68;100053.44;7361753;19;19921;-58
2023/01/13 07:30:06;;;;;;;;;;;;;;;10.48;75.85;100050.81;7357307;19;19922;-59
2023/01/13 07:32:33;;;;;;;;;;;;;;;10.49;75.63;100068.25;7359347;19;19923;-58
2023/01/13 07:35:11;;;;;;;;;;;;;;;10.47;74.97;100070.22;7395424;19;19951;-58
2023/01/13 07:37:38;;;;;;;;;;;;;;;10.45;75.20;100067.78;7395806;19;19930;-58
2023/01/13 07:40:05;;;;;;;;;;;;;;;10.45;75.31;100064.31;7394939;19;19921;-57
2023/01/13 07:45:03;;;;;;;;;;;;;;;10.44;75.76;100071.38;7392531;19;19946;-60
2023/01/13 07:47:30;;;;;;;;;;;;;;;10.43;74.99;100077.63;7393967;19;20371;-59
2023/01/13 07:49:57;;;;;;;;;;;;;;;10.49;75.49;100084.84;7394988;19;20004;-55
2023/01/13 07:52:24;;;;;;;;;;;;;;;10.51;75.00;100092.56;7396024;19;19918;-58
2023/01/13 07:54:51;;;;;;;;;;;;;;;10.53;74.21;100101.09;7391469;19;19926;-59
2023/01/13 07:57:18;;;;;;;;;;;;;;;10.56;73.54;100101.59;7396442;19;20006;-59
2023/01/13 07:59:45;;;;;;;;;;;;;;;10.60;73.63;100112.59;7394823;19;19918;-58
2023/01/13 08:02:12;;;;;;;;;;;;;;;10.66;73.64;100111.91;7395242;19;19926;-59
2023/01/13 08:04:39;;;;;;;;;;;;;;;10.69;74.12;100107.13;7394114;19;19939;-60
2023/01/13 08:07:06;;;;;;;;;;;;;;;10.72;73.28;100113.84;7393969;19;20249;-61
2023/01/13 08:09:33;;;;;;;;;;;;;;;10.72;73.24;100122.56;7391897;19;19919;-59
2023/01/13 08:14:30;;;;;;;;;;;;;;;10.76;72.30;100133.56;7375145;19;19938;-58
2023/01/13 08:16:57;;;;;;;;;;;;;;;10.75;72.76;100123.22;7391785;19;19915;-57
2023/01/13 08:19:24;;;;;;;;;;;;;;;10.76;72.47;100132.75;7391169;19;19926;-60
2023/01/13 08:21:51;;;;;;;;;;;;;;;10.76;72.49;100140.66;7391327;19;19929;-60
2023/01/13 08:24:18;;;;;;;;;;;;;;;10.77;73.14;100148.34;7388763;19;19929;-59
2023/01/13 08:26:45;;;;;;;;;;;;;;;10.78;72.96;100149.16;7393700;19;19940;-59
2023/01/13 08:29:12;;;;;;;;;;;;;;;10.78;72.75;100162.31;7390087;19;19933;-61
2023/01/13 08:31:40;;;;;;;;;;;;;;;10.80;72.22;100166.44;7391890;19;19922;-57
2023/01/13 08:34:07;;;;;;;;;;;;;;;10.81;70.01;100175.16;7391819;19;19926;-59
2023/01/13 08:36:34;;;;;;;;;;;;;;;10.84;70.65;100178.25;7392306;19;21217;-57
2023/01/13 08:39:01;;;;;;;;;;;;;;;10.87;71.97;100180.53;7387415;19;20259;-60
2023/01/13 08:43:58;;;;;;;;;;;;;;;10.90;72.12;100198.63;7394178;19;21268;-59
2023/01/13 08:46:25;;;;;;;;;;;;;;;10.91;71.06;100210.00;7365461;19;19926;-62
2023/01/13 08:48:52;;;;;;;;;;;;;;;10.92;70.60;100219.53;7366381;19;20812;-56
2023/01/13 08:51:19;;;;;;;;;;;;;;;10.94;71.41;100222.81;7366030;19;20252;-58
2023/01/13 08:53:46;;;;;;;;;;;;;;;10.96;71.19;100228.72;7363955;19;19915;-56
2023/01/13 08:56:13;;;;;;;;;;;;;;;10.96;71.35;100228.72;7363261;19;19922;-59
2023/01/13 08:58:40;;;;;;;;;;;;;;;11.11;81.05;100227.84;7366425;19;20188;-61
2023/01/13 09:01:08;;;;;;;;;;;;;;;11.19;75.78;100236.69;7359447;19;19926;-61
2023/01/13 09:03:37;;;;;;;;;;;;;;;11.22;72.93;100250.34;7365129;19;19926;-59
2023/01/13 09:06:05;;;;;;;;;;;;;;;11.24;71.74;100253.63;7364661;19;19926;-57
2023/01/13 09:08:32;;;;;;;;;;;;;;;11.26;71.68;100262.19;7363024;19;19927;-58
2023/01/13 09:10:59;;;;;;;;;;;;;;;11.24;71.42;100252.78;7362448;19;19911;-59
2023/01/13 09:13:26;;;;;;;;;;;;;;;11.24;70.38;100252.78;7364494;19;20271;-57
2023/01/13 09:15:55;;;;;;;;;;;;;;;11.22;70.62;100245.09;7362461;19;20334;-60
2023/01/13 09:18:22;;;;;;;;;;;;;;;11.20;70.44;100262.03;7361375;19;19930;-59
2023/01/13 09:20:49;;;;;;;;;;;;;;;11.19;70.26;100273.53;7361925;19;20551;-57
2023/01/13 09:23:16;;;;;;;;;;;;;;;11.19;70.10;100282.28;7363627;19;19914;-58
2023/01/13 09:25:43;;;;;;;;;;;;;;;11.19;69.27;100277.00;7361402;19;19922;-57
2023/01/13 09:28:10;;;;;;;;;;;;;;;11.20;70.70;100281.28;7363807;19;19915;-57
2023/01/13 09:30:37;;;;;;;;;;;;;;;11.18;68.67;100288.53;7363335;19;19923;-58
2023/01/13 09:35:35;;;;;;;;;;;;;;;11.24;69.54;100302.81;7359653;19;19922;-57
2023/01/13 09:38:02;;;;;;;;;;;;;;;11.27;69.65;100313.03;7363882;19;20400;-58
2023/01/13 09:40:29;;;;;;;;;;;;;;;11.32;69.03;100319.44;7361077;19;19930;-59
2023/01/13 09:45:31;;;;;;;;;;;;;;;11.34;68.61;100322.69;7361898;19;19926;-61
2023/01/13 09:48:06;;;;;;;;;;;;;;;11.35;69.45;100332.25;7363722;19;20295;-57
2023/01/13 09:50:36;;;;;;;;;;;;;;;11.42;69.99;100343.75;7363972;19;19925;-59
2023/01/13 09:53:09;;;;;;;;;;;;;;;11.47;68.84;100332.72;7364451;19;20556;-60
2023/01/13 09:55:36;;;;;;;;;;;;;;;11.45;68.41;100356.59;7359187;19;20340;-56
2023/01/13 09:58:06;;;;;;;;;;;;;;;11.47;68.82;100348.53;7362781;19;19923;-59
2023/01/13 10:00:35;;;;;;;;;;;;;;;11.47;68.13;100346.72;7361244;19;19926;-59
2023/01/13 10:03:05;;;;;;;;;;;;;;;11.50;68.18;100346.34;7363163;19;19990;-59
2023/01/13 10:05:36;;;;;;;;;;;;;;;11.54;68.56;100358.19;7363664;19;19930;-65
2023/01/13 10:08:09;;;;;;;;;;;;;;;11.54;68.21;100358.19;7360460;19;19926;-58
2023/01/13 10:10:40;;;;;;;;;;;;;;;11.58;67.70;100369.19;7361376;19;19970;-60
2023/01/13 10:13:13;;;;;;;;;;;;;;;11.60;67.94;100372.50;7361262;19;20343;-59
2023/01/13 10:15:43;;;;;;;;;;;;;;;11.66;67.97;100379.72;7359179;19;20516;-57
2023/01/13 10:18:14;;;;;;;;;;;;;;;11.69;67.93;100382.00;7360526;19;20062;-59
2023/01/13 10:20:48;;;;;;;;;;;;;;;11.74;67.40;100379.72;7363918;19;19914;-58
2023/01/13 10:23:19;;;;;;;;;;;;;;;11.80;67.44;100388.75;7360466;19;20710;-58
2023/01/13 10:25:49;;;;;;;;;;;;;;;11.82;66.59;100384.16;7362338;19;19990;-59
2023/01/13 10:28:18;;;;;;;;;;;;;;;11.84;67.08;100385.59;7360071;19;19955;-61
2023/01/13 10:30:46;;;;;;;;;;;;;;;11.87;67.40;100395.00;7361785;19;20341;-61
2023/01/13 10:33:16;;;;;;;;;;;;;;;11.89;66.84;100408.81;7361806;19;19941;-56
2023/01/13 10:35:46;;;;;;;;;;;;;;;11.88;66.31;100399.28;7359859;19;20179;-59
2023/01/13 10:38:16;;;;;;;;;;;;;;;11.92;67.19;100417.22;7360991;19;19946;-57
2023/01/13 10:40:46;;;;;;;;;;;;;;;11.94;66.11;100417.84;7361785;19;19993;-55
2023/01/13 10:43:13;;;;;;;;;;;;;;;11.88;65.51;100410.66;7362511;19;20538;-60
2023/01/13 10:45:40;;;;;;;;;;;;;;;11.86;66.66;100417.06;7361283;19;20011;-60
2023/01/13 10:48:12;;;;;;;;;;;;;;;11.85;66.10;100412.78;7361941;19;19928;-58
2023/01/13 10:50:39;;;;;;;;;;;;;;;11.83;66.48;100414.78;7362093;19;19982;-57
2023/01/13 10:53:09;;;;;;;;;;;;;;;11.80;66.02;100420.38;7360993;19;19922;-60
2023/01/13 10:55:36;;;;;;;;;;;;;;;11.80;65.42;100434.38;7358839;19;19929;-58
2023/01/13 10:58:07;;;;;;;;;;;;;;;11.81;65.96;100432.56;7362835;19;19940;-59
2023/01/13 11:00:35;;;;;;;;;;;;;;;11.86;66.02;100430.25;7362860;19;19929;-61
2023/01/13 11:03:05;;;;;;;;;;;;;;;11.87;65.88;100445.09;7362859;19;19959;-59
2023/01/13 11:05:32;;;;;;;;;;;;;;;11.90;64.84;100431.53;7361587;19;19942;-58
2023/01/13 11:07:59;;;;;;;;;;;;;;;11.94;65.14;100430.22;7358134;19;19922;-58
2023/01/13 11:10:30;;;;;;;;;;;;;;;11.94;66.32;100452.13;7360674;19;19919;-59
2023/01/13 11:13:01;;;;;;;;;;;;;;;11.96;65.50;100450.16;7359728;19;20358;-62
2023/01/13 11:15:36;;;;;;;;;;;;;;;12.02;65.97;100459.19;7359964;19;19972;-60
2023/01/13 11:18:10;;;;;;;;;;;;;;;12.05;63.95;100468.56;7361393;19;19998;-60
2023/01/13 11:20:40;;;;;;;;;;;;;;;12.08;64.35;100473.50;7361378;19;20260;-61
2023/01/13 11:23:10;;;;;;;;;;;;;;;12.11;64.80;100473.16;7358748;19;19935;-59
2023/01/13 11:25:41;;;;;;;;;;;;;;;12.15;65.63;100477.91;7360922;19;19929;-55
2023/01/13 11:28:11;;;;;;;;;;;;;;;12.19;65.10;100481.06;7358021;19;19934;-59
2023/01/13 11:30:42;;;;;;;;;;;;;;;12.22;66.23;100484.16;7359668;19;19990;-58
2023/01/13 11:33:10;;;;;;;;;;;;;;;12.20;64.35;100482.66;7357757;19;20870;-58
2023/01/13 11:35:41;;;;;;;;;;;;;;;12.24;64.36;100482.16;7357755;19;19926;-59
2023/01/13 11:38:11;;;;;;;;;;;;;;;12.25;64.22;100475.88;7355748;19;19923;-58
2023/01/13 11:40:41;;;;;;;;;;;;;;;12.27;64.66;100486.28;7356339;19;19989;-61
2023/01/13 11:43:11;;;;;;;;;;;;;;;12.26;63.98;100485.44;7360770;19;19926;-59
2023/01/13 11:45:44;;;;;;;;;;;;;;;12.25;65.27;100475.06;7358575;19;20250;-55
2023/01/13 11:48:12;;;;;;;;;;;;;;;12.26;65.07;100479.34;7359027;19;20123;-60
2023/01/13 11:50:47;;;;;;;;;;;;;;;12.25;64.45;100485.63;7356630;19;19918;-61
2023/01/13 11:53:24;;;;;;;;;;;;;;;12.23;63.83;100475.25;7347047;19;20292;-57
2023/01/13 11:55:51;;;;;;;;;;;;;;;12.20;64.22;100480.03;7340255;19;19978;-58
2023/01/13 11:58:21;;;;;;;;;;;;;;;12.20;64.55;100475.59;7353907;19;19926;-58
2023/01/13 12:00:49;;;;;;;;;;;;;;;12.24;65.03;100476.09;7357290;19;19919;-59
2023/01/13 12:03:21;;;;;;;;;;;;;;;12.25;64.14;100469.78;7355472;19;19986;-60
2023/01/13 12:05:49;;;;;;;;;;;;;;;12.29;65.24;100473.75;7356108;19;20206;-57
2023/01/13 12:08:17;;;;;;;;;;;;;;;12.33;64.59;100459.22;7355689;19;19944;-56
2023/01/13 12:10:47;;;;;;;;;;;;;;;12.35;64.09;100471.22;7355945;19;19926;-59
2023/01/13 12:13:18;;;;;;;;;;;;;;;12.39;64.65;100475.16;7356566;19;20320;-55
2023/01/13 12:15:48;;;;;;;;;;;;;;;12.40;64.03;100476.78;7353473;19;19927;-59
2023/01/13 12:18:18;;;;;;;;;;;;;;;12.42;63.45;100480.09;7359756;19;20463;-59
2023/01/13 12:20:48;;;;;;;;;;;;;;;12.43;65.23;100499.41;7360361;19;19947;-60
2023/01/13 12:23:18;;;;;;;;;;;;;;;12.46;64.63;100487.66;7363769;19;21636;-60
2023/01/13 12:25:48;;;;;;;;;;;;;;;12.42;63.28;100482.75;7362613;19;19935;-59
2023/01/13 12:28:17;;;;;;;;;;;;;;;12.42;64.01;100490.66;7362966;19;19915;-59
2023/01/13 12:30:45;;;;;;;;;;;;;;;12.46;63.71;100496.41;7361041;19;21122;-58
2023/01/13 12:33:18;;;;;;;;;;;;;;;12.53;64.60;100500.00;7364293;19;19925;-58
2023/01/13 12:35:50;;;;;;;;;;;;;;;12.55;63.56;100502.44;7361335;19;19923;-56
2023/01/13 12:38:23;;;;;;;;;;;;;;;12.55;63.63;100503.28;7361658;19;20260;-56
2023/01/13 12:40:53;;;;;;;;;;;;;;;12.57;64.21;100500.47;7364831;19;19942;-58
2023/01/13 12:45:52;;;;;;;;;;;;;;;12.57;62.35;100522.41;7365227;19;19921;-59
2023/01/13 12:48:22;;;;;;;;;;;;;;;12.57;62.91;100514.47;7361716;19;19926;-57
2023/01/13 12:50:59;;;;;;;;;;;;;;;12.56;63.42;100522.56;7362520;19;19914;-57
2023/01/13 12:53:28;;;;;;;;;;;;;;;12.55;63.09;100519.09;7360676;19;20293;-55
2023/01/13 12:56:15;;;;;;;;;;;;;;;12.57;63.41;100529.50;7361058;19;20027;-58
2023/01/13 12:58:42;;;;;;;;;;;;;;;12.57;62.62;100517.13;7359430;19;20299;-60
2023/01/13 13:01:11;;;;;;;;;;;;;;;12.61;63.01;100512.31;7361080;19;20280;-58
2023/01/13 13:03:38;;;;;;;;;;;;;;;12.61;62.81;100538.72;7363355;19;19915;-57
2023/01/13 13:06:06;;;;;;;;;;;;;;;12.59;62.21;100530.97;7361343;19;19919;-57
2023/01/13 13:08:36;;;;;;;;;;;;;;;12.57;63.12;100526.84;7362217;19;19930;-58
2023/01/13 13:11:06;;;;;;;;;;;;;;;12.55;62.11;100532.31;7360677;19;19933;-57
2023/01/13 13:13:36;;;;;;;;;;;;;;;12.50;62.32;100533.81;7362778;19;19945;-57
2023/01/13 13:16:06;;;;;;;;;;;;;;;12.48;62.43;100549.84;7358648;19;19929;-57
2023/01/13 13:18:33;;;;;;;;;;;;;;;12.50;62.76;100561.03;7362478;19;19918;-57
2023/01/13 13:21:04;;;;;;;;;;;;;;;12.53;63.46;100567.78;7363263;19;20683;-58
2023/01/13 13:26:06;;;;;;;;;;;;;;;12.56;62.90;100576.19;7360024;19;19922;-58
2023/01/13 13:28:37;;;;;;;;;;;;;;;12.56;62.57;100572.72;7363028;19;19918;-58
2023/01/13 13:31:08;;;;;;;;;;;;;;;12.56;62.63;100578.00;7359583;19;19923;-58
2023/01/13 13:33:38;;;;;;;;;;;;;;;12.56;62.76;100586.72;7361487;19;19927;-54